createdAt,value
2022-12-15T00:01:55.914Z,-8.96
2022-12-15T00:05:17.126Z,-8.96
2022-12-15T00:08:38.164Z,-9.03
2022-12-15T00:11:59.586Z,-8.98
2022-12-15T00:15:20.921Z,-8.88
2022-12-15T00:18:42.049Z,-8.87
2022-12-15T00:22:03.038Z,-8.82
2022-12-15T00:25:24.176Z,-8.92
2022-12-15T00:28:44.905Z,-8.93
2022-12-15T00:32:05.873Z,-8.80
2022-12-15T00:35:27.573Z,-8.62
2022-12-15T00:38:45.324Z,-8.54
2022-12-15T00:41:47.598Z,-8.42
2022-12-15T00:44:51.245Z,-8.38
2022-12-15T00:47:53.589Z,-8.24
2022-12-15T00:50:55.920Z,-8.21
2022-12-15T00:54:18.245Z,-8.13
2022-12-15T00:57:39.477Z,-8.05
2022-12-15T01:01:00.574Z,-7.91
2022-12-15T01:04:21.739Z,-7.98
2022-12-15T01:07:44.329Z,-8.01
2022-12-15T01:11:10.739Z,-8.08
2022-12-15T01:14:32.009Z,-8.10
2022-12-15T01:17:53.075Z,-8.16
2022-12-15T01:21:08.356Z,-8.27
2022-12-15T01:24:10.647Z,-8.43
2022-12-15T01:27:12.948Z,-8.46
2022-12-15T01:30:18.844Z,-8.40
2022-12-15T01:33:22.156Z,-8.39
2022-12-15T01:36:24.320Z,-8.52
2022-12-15T01:39:46.584Z,-8.59
2022-12-15T01:42:48.955Z,-8.62
2022-12-15T01:45:58.517Z,-8.82
2022-12-15T01:49:17.100Z,-8.95
2022-12-15T01:52:19.477Z,-8.75
2022-12-15T01:55:22.913Z,-8.83
2022-12-15T01:58:25.558Z,-8.87
2022-12-15T02:01:28.122Z,-8.92
2022-12-15T02:04:31.123Z,-9.00
2022-12-15T02:07:33.523Z,-8.99
2022-12-15T02:10:54.920Z,-9.01
2022-12-15T02:14:08.424Z,-9.17
2022-12-15T02:17:19.632Z,-9.15
2022-12-15T02:20:21.881Z,-9.15
2022-12-15T02:23:42.524Z,-9.13
2022-12-15T02:27:07.658Z,-9.10
2022-12-15T02:30:30.589Z,-9.24
2022-12-15T02:33:33.509Z,-9.24
2022-12-15T02:36:38.243Z,-9.22
2022-12-15T02:39:40.646Z,-9.29
2022-12-15T02:42:53.929Z,-9.20
2022-12-15T02:46:13.676Z,-9.29
2022-12-15T02:49:19.031Z,-9.39
2022-12-15T02:52:45.749Z,-9.31
2022-12-15T02:56:40.425Z,-9.39
2022-12-15T03:00:07.296Z,-9.49
2022-12-15T03:03:10.101Z,-9.67
2022-12-15T03:06:12.602Z,-9.65
2022-12-15T03:09:14.920Z,-9.67
2022-12-15T03:12:17.177Z,-9.62
2022-12-15T03:15:20.007Z,-9.60
2022-12-15T03:18:22.282Z,-9.81
2022-12-15T03:21:26.000Z,-9.77
2022-12-15T03:24:28.314Z,-9.76
2022-12-15T03:27:30.873Z,-9.71
2022-12-15T03:30:33.205Z,-9.52
2022-12-15T03:33:35.733Z,-9.51
2022-12-15T03:36:38.458Z,-9.52
2022-12-15T03:39:40.753Z,-9.76
2022-12-15T03:42:48.649Z,-9.84
2022-12-15T03:45:50.995Z,-9.91
2022-12-15T03:48:54.233Z,-10.06
2022-12-15T03:51:56.429Z,-9.97
2022-12-15T03:54:58.855Z,-10.16
2022-12-15T03:58:01.366Z,-10.07
2022-12-15T04:01:33.917Z,-10.05
2022-12-15T04:04:36.338Z,-9.98
2022-12-15T04:07:38.661Z,-10.23
2022-12-15T04:10:41.008Z,-10.23
2022-12-15T04:13:43.679Z,-10.11
2022-12-15T04:16:46.062Z,-10.13
2022-12-15T04:20:07.400Z,-10.18
2022-12-15T04:23:09.932Z,-10.25
2022-12-15T04:26:30.756Z,-10.19
2022-12-15T04:29:51.842Z,-10.24
2022-12-15T04:33:13.520Z,-10.25
2022-12-15T04:36:35.026Z,-10.17
2022-12-15T04:39:57.155Z,-10.21
2022-12-15T04:43:18.051Z,-10.24
2022-12-15T04:46:38.837Z,-10.29
2022-12-15T04:49:59.959Z,-10.20
2022-12-15T04:53:31.627Z,-10.32
2022-12-15T04:56:53.118Z,-10.39
2022-12-15T05:00:14.364Z,-10.45
2022-12-15T05:03:35.496Z,-10.79
2022-12-15T05:06:56.749Z,-10.58
2022-12-15T05:10:17.664Z,-10.62
2022-12-15T05:13:38.792Z,-10.45
2022-12-15T05:16:59.604Z,-10.49
2022-12-15T05:20:20.757Z,-10.33
2022-12-15T05:23:41.756Z,-10.10
2022-12-15T05:27:02.791Z,-9.82
2022-12-15T05:30:24.104Z,-9.83
2022-12-15T05:33:26.462Z,-9.61
2022-12-15T05:36:28.798Z,-9.50
2022-12-15T05:39:31.201Z,-9.42
2022-12-15T05:42:33.463Z,-9.32
2022-12-15T05:45:35.822Z,-9.29
2022-12-15T05:48:38.296Z,-9.10
2022-12-15T05:51:41.413Z,-9.13
2022-12-15T05:54:43.801Z,-8.81
2022-12-15T05:57:52.311Z,-8.76
2022-12-15T06:00:54.783Z,-8.64
2022-12-15T06:03:57.058Z,-8.77
2022-12-15T06:06:59.413Z,-8.74
2022-12-15T06:10:01.829Z,-8.43
2022-12-15T06:13:05.462Z,-8.44
2022-12-15T06:16:10.285Z,-8.29
2022-12-15T06:19:12.682Z,-8.30
2022-12-15T06:22:15.294Z,-8.09
2022-12-15T06:25:18.257Z,-7.93
2022-12-15T06:28:24.045Z,-7.96
2022-12-15T06:31:26.940Z,-7.80
2022-12-15T06:34:29.368Z,-7.86
2022-12-15T06:37:31.681Z,-7.66
2022-12-15T06:40:38.094Z,-7.69
2022-12-15T06:43:41.157Z,-7.38
2022-12-15T06:46:44.297Z,-7.31
2022-12-15T06:49:46.717Z,-7.34
2022-12-15T06:52:49.099Z,-7.44
2022-12-15T06:55:51.611Z,-7.32
2022-12-15T06:58:54.680Z,-7.29
2022-12-15T07:01:57.191Z,-7.15
2022-12-15T07:05:00.082Z,-7.05
2022-12-15T07:08:02.462Z,-7.23
2022-12-15T07:11:06.628Z,-7.28
2022-12-15T07:14:09.993Z,-6.95
2022-12-15T07:17:12.429Z,-7.36
2022-12-15T07:20:14.746Z,-7.20
2022-12-15T07:23:17.140Z,-7.36
2022-12-15T07:26:20.322Z,-7.42
2022-12-15T07:29:23.739Z,-7.32
2022-12-15T07:32:26.055Z,-6.82
2022-12-15T07:35:28.351Z,-7.16
2022-12-15T07:38:31.086Z,-7.21
2022-12-15T07:41:33.782Z,-7.19
2022-12-15T07:44:36.247Z,-7.11
2022-12-15T07:47:38.571Z,-7.15
2022-12-15T07:50:41.001Z,-7.23
2022-12-15T07:53:43.401Z,-7.41
2022-12-15T07:56:50.549Z,-7.19
2022-12-15T07:59:53.044Z,-7.24
2022-12-15T08:02:55.723Z,-7.20
2022-12-15T08:06:03.752Z,-6.98
2022-12-15T08:09:06.568Z,-6.90
2022-12-15T08:12:09.064Z,-6.96
2022-12-15T08:15:11.894Z,-7.01
2022-12-15T08:18:14.178Z,-7.21
2022-12-15T08:21:16.641Z,-7.11
2022-12-15T08:24:19.712Z,-7.21
2022-12-15T08:27:24.189Z,-7.07
2022-12-15T08:30:26.484Z,-6.97
2022-12-15T08:33:29.102Z,-7.21
2022-12-15T08:36:32.277Z,-7.41
2022-12-15T08:39:34.575Z,-7.48
2022-12-15T08:42:37.946Z,-7.40
2022-12-15T08:45:41.808Z,-7.36
2022-12-15T08:48:44.596Z,-7.26
2022-12-15T08:51:47.038Z,-7.21
2022-12-15T08:54:53.657Z,-7.20
2022-12-15T08:57:56.333Z,-7.31
2022-12-15T09:01:09.964Z,-7.38
2022-12-15T09:04:12.352Z,-7.16
2022-12-15T09:07:14.694Z,-7.30
2022-12-15T09:10:17.177Z,-7.19
2022-12-15T09:13:19.549Z,-7.17
2022-12-15T09:16:22.716Z,-7.17
2022-12-15T09:19:25.560Z,-6.64
2022-12-15T09:22:28.425Z,-6.73
2022-12-15T09:25:30.833Z,-7.32
2022-12-15T09:28:33.632Z,-7.48
2022-12-15T09:31:38.203Z,-7.20
2022-12-15T09:34:41.324Z,-7.01
2022-12-15T09:37:48.437Z,-7.11
2022-12-15T09:40:54.055Z,-7.49
2022-12-15T09:44:00.581Z,-7.19
2022-12-15T09:47:19.596Z,-6.93
2022-12-15T09:50:27.321Z,-7.11
2022-12-15T09:53:54.190Z,-7.23
2022-12-15T09:56:59.057Z,-7.09
2022-12-15T10:00:01.298Z,-7.46
2022-12-15T10:03:13.733Z,-7.10
2022-12-15T10:06:33.509Z,-7.19
2022-12-15T10:09:37.437Z,-6.91
2022-12-15T10:12:53.233Z,-6.77
2022-12-15T10:16:04.216Z,-7.23
2022-12-15T10:19:10.085Z,-7.16
2022-12-15T10:22:20.397Z,-7.61
2022-12-15T10:25:31.938Z,-7.60
2022-12-15T10:28:55.954Z,-7.18
2022-12-15T10:32:00.936Z,-7.03
2022-12-15T10:35:08.988Z,-6.78
2022-12-15T10:38:27.888Z,-6.80
2022-12-15T10:41:33.795Z,-7.24
2022-12-15T10:44:41.754Z,-7.10
2022-12-15T10:48:02.785Z,-6.93
2022-12-15T10:51:22.482Z,-7.10
2022-12-15T10:54:28.006Z,-6.92
2022-12-15T10:57:31.877Z,-6.89
2022-12-15T11:00:34.545Z,-7.15
2022-12-15T11:03:39.728Z,-6.90
2022-12-15T11:06:43.216Z,-6.70
2022-12-15T11:09:47.648Z,-6.21
2022-12-15T11:13:16.103Z,-6.69
2022-12-15T11:16:19.824Z,-6.92
2022-12-15T11:19:37.854Z,-6.79
2022-12-15T11:22:59.295Z,-6.84
2022-12-15T11:26:07.274Z,-6.66
2022-12-15T11:29:24.268Z,-6.33
2022-12-15T11:32:33.273Z,-6.60
2022-12-15T11:35:57.084Z,-6.64
2022-12-15T11:39:41.094Z,-6.79
2022-12-15T11:43:22.468Z,-6.70
2022-12-15T11:46:28.099Z,-6.54
2022-12-15T11:49:48.905Z,-6.58
2022-12-15T11:53:12.186Z,-6.56
2022-12-15T11:56:24.430Z,-6.68
2022-12-15T11:59:35.867Z,-6.31
2022-12-15T12:02:44.482Z,-6.49
2022-12-15T12:06:01.618Z,-6.26
2022-12-15T12:09:22.555Z,-6.49
2022-12-15T12:12:33.626Z,-6.56
2022-12-15T12:15:43.584Z,-6.71
2022-12-15T12:18:54.877Z,-6.46
2022-12-15T12:22:03.197Z,-6.33
2022-12-15T12:25:20.076Z,-6.14
2022-12-15T12:28:33.910Z,-6.33
2022-12-15T12:31:39.586Z,-6.24
2022-12-15T12:34:50.964Z,-6.37
2022-12-15T12:38:03.703Z,-6.35
2022-12-15T12:41:22.110Z,-6.36
2022-12-15T12:44:34.254Z,-6.43
2022-12-15T12:47:39.018Z,-6.31
2022-12-15T12:50:41.764Z,-6.16
2022-12-15T12:53:44.237Z,-6.36
2022-12-15T13:00:23.605Z,-6.21
2022-12-15T13:03:30.226Z,-6.39
2022-12-15T13:06:35.502Z,-6.35
2022-12-15T13:09:44.615Z,-6.41
2022-12-15T13:13:01.130Z,-6.30
2022-12-15T13:16:14.021Z,-6.49
2022-12-15T13:20:02.359Z,-6.41
2022-12-15T13:23:20.080Z,-6.54
2022-12-15T13:26:22.500Z,-6.81
2022-12-15T13:29:24.957Z,-6.81
2022-12-15T13:32:33.559Z,-6.76
2022-12-15T13:35:36.360Z,-6.83
2022-12-15T13:38:55.979Z,-6.87
2022-12-15T13:45:36.496Z,-6.85
2022-12-15T13:48:53.894Z,-6.84
2022-12-15T13:53:08.125Z,-6.88
2022-12-15T13:55:58.082Z,-6.93
2022-12-15T13:59:08.130Z,-7.06
2022-12-15T14:02:29.982Z,-7.17
2022-12-15T14:05:32.445Z,-7.16
2022-12-15T14:08:34.807Z,-7.19
2022-12-15T14:11:52.576Z,-7.13
2022-12-15T14:14:56.175Z,-6.98
2022-12-15T14:18:01.343Z,-6.87
2022-12-15T14:21:08.080Z,-6.68
2022-12-15T14:24:40.870Z,-6.07
2022-12-15T14:27:43.755Z,-6.36
2022-12-15T14:30:46.176Z,-6.17
2022-12-15T14:34:07.284Z,-5.86
2022-12-15T14:37:14.039Z,-5.90
2022-12-15T14:40:17.987Z,-5.65
2022-12-15T14:43:30.268Z,-5.61
2022-12-15T14:46:33.194Z,-5.58
2022-12-15T14:49:41.626Z,-5.48
2022-12-15T14:52:44.634Z,-5.42
2022-12-15T14:55:46.989Z,-5.64
2022-12-15T14:59:00.281Z,-5.63
2022-12-15T15:02:12.824Z,-5.79
2022-12-15T15:03:10.518Z,-6.20
2022-12-15T15:05:28.151Z,-5.60
2022-12-15T15:08:34.684Z,-5.52
2022-12-15T15:11:38.173Z,-5.61
2022-12-15T15:14:46.874Z,-6.11
2022-12-15T15:17:52.110Z,-5.71
2022-12-15T15:21:06.141Z,-5.51
2022-12-15T15:24:11.202Z,-5.61
2022-12-15T15:27:45.905Z,-6.03
2022-12-15T15:30:56.366Z,-5.52
2022-12-15T15:33:59.513Z,-5.80
2022-12-15T15:37:05.927Z,-6.15
2022-12-15T15:40:11.600Z,-5.77
2022-12-15T15:43:14.021Z,-5.73
2022-12-15T15:46:21.103Z,-5.82
2022-12-15T15:49:24.819Z,-5.57
2022-12-15T15:52:29.192Z,-5.71
2022-12-15T15:55:39.419Z,-5.87
2022-12-15T15:58:44.248Z,-5.62
2022-12-15T16:01:49.899Z,-5.39
2022-12-15T16:04:52.336Z,-5.23
2022-12-15T16:07:54.707Z,-5.33
2022-12-15T16:10:57.086Z,-5.39
2022-12-15T16:13:59.512Z,-5.36
2022-12-15T16:17:01.964Z,-5.38
2022-12-15T16:20:04.748Z,-5.25
2022-12-15T16:23:27.943Z,-5.72
2022-12-15T16:26:32.711Z,-5.39
2022-12-15T16:29:34.988Z,-5.32
2022-12-15T16:32:37.307Z,-5.37
2022-12-15T16:35:40.835Z,-5.42
2022-12-15T16:38:43.221Z,-5.42
2022-12-15T16:41:45.576Z,-5.53
2022-12-15T16:44:47.856Z,-5.33
2022-12-15T16:47:50.540Z,-5.41
2022-12-15T16:50:59.330Z,-5.53
2022-12-15T16:54:01.944Z,-5.40
2022-12-15T16:57:05.644Z,-5.31
2022-12-15T17:00:18.051Z,-5.21
2022-12-15T17:03:23.529Z,-5.21
2022-12-15T17:06:26.105Z,-5.35
2022-12-15T17:09:29.102Z,-5.53
2022-12-15T17:12:31.454Z,-5.62
2022-12-15T17:15:33.925Z,-5.63
2022-12-15T17:18:36.334Z,-5.40
2022-12-15T17:21:45.766Z,-5.36
2022-12-15T17:24:49.338Z,-5.00
2022-12-15T17:27:51.975Z,-5.24
2022-12-15T17:30:54.495Z,-5.21
2022-12-15T17:33:56.785Z,-5.32
2022-12-15T17:37:01.051Z,-5.28
2022-12-15T17:40:05.066Z,-5.45
2022-12-15T17:43:16.247Z,-5.47
2022-12-15T17:46:18.898Z,-5.30
2022-12-15T17:49:21.933Z,-5.24
2022-12-15T17:52:34.688Z,-4.98
2022-12-15T17:55:37.230Z,-5.13
2022-12-15T17:58:39.681Z,-5.21
2022-12-15T18:01:43.150Z,-4.96
2022-12-15T18:04:46.000Z,-5.19
2022-12-15T18:07:51.342Z,-5.02
2022-12-15T18:10:55.481Z,-5.01
2022-12-15T18:13:58.494Z,-4.88
2022-12-15T18:17:01.038Z,-4.84
2022-12-15T18:20:04.801Z,-4.79
2022-12-15T18:23:22.798Z,-4.78
2022-12-15T18:26:25.158Z,-4.78
2022-12-15T18:29:27.564Z,-4.92
2022-12-15T18:32:30.113Z,-4.84
2022-12-15T18:35:38.458Z,-5.00
2022-12-15T18:38:40.921Z,-5.00
2022-12-15T18:41:43.340Z,-4.70
2022-12-15T18:44:50.591Z,-4.68
2022-12-15T18:47:54.137Z,-4.66
2022-12-15T18:50:58.233Z,-4.80
2022-12-15T18:54:01.025Z,-4.73
2022-12-15T18:57:03.390Z,-4.72
2022-12-15T19:00:14.568Z,-4.56
2022-12-15T19:03:16.972Z,-4.86
2022-12-15T19:06:34.819Z,-4.63
2022-12-15T19:09:37.225Z,-5.00
2022-12-15T19:12:39.640Z,-5.05
2022-12-15T19:15:42.471Z,-4.96
2022-12-15T19:19:03.795Z,-4.84
2022-12-15T19:22:27.173Z,-4.84
2022-12-15T19:25:30.598Z,-4.81
2022-12-15T19:28:33.259Z,-4.64
2022-12-15T19:31:36.328Z,-5.02
2022-12-15T19:34:38.950Z,-4.85
2022-12-15T19:37:43.561Z,-4.73
2022-12-15T19:40:46.150Z,-4.99
2022-12-15T19:43:48.433Z,-4.99
2022-12-15T19:46:50.725Z,-4.90
2022-12-15T19:49:53.154Z,-4.81
2022-12-15T19:53:01.815Z,-5.07
2022-12-15T19:56:04.755Z,-5.06
2022-12-15T19:59:13.664Z,-4.91
2022-12-15T20:02:17.945Z,-4.95
2022-12-15T20:05:20.747Z,-4.63
2022-12-15T20:08:25.525Z,-5.03
2022-12-15T20:11:31.049Z,-4.77
2022-12-15T20:14:33.637Z,-4.99
2022-12-15T20:17:36.125Z,-5.10
2022-12-15T20:20:39.351Z,-4.98
2022-12-15T20:24:03.046Z,-5.07
2022-12-15T20:27:11.862Z,-5.12
2022-12-15T20:30:18.879Z,-4.89
2022-12-15T20:33:21.395Z,-4.79
2022-12-15T20:36:26.960Z,-4.84
2022-12-15T20:39:30.288Z,-4.88
2022-12-15T20:42:32.802Z,-4.72
2022-12-15T20:45:35.275Z,-4.74
2022-12-15T20:48:38.017Z,-4.87
2022-12-15T20:51:40.343Z,-4.88
2022-12-15T20:54:43.039Z,-4.78
2022-12-15T20:57:45.620Z,-5.11
2022-12-15T21:00:49.094Z,-4.86
2022-12-15T21:03:56.519Z,-4.76
2022-12-15T21:06:59.077Z,-4.69
2022-12-15T21:10:02.018Z,-4.85
2022-12-15T21:13:19.280Z,-4.57
2022-12-15T21:16:25.155Z,-4.86
2022-12-15T21:19:27.842Z,-4.88
2022-12-15T21:22:30.507Z,-4.92
2022-12-15T21:25:32.841Z,-5.01
2022-12-15T21:28:35.233Z,-4.88
2022-12-15T21:31:37.796Z,-4.67
2022-12-15T21:34:40.748Z,-4.89
2022-12-15T21:37:44.115Z,-4.87
2022-12-15T21:40:46.567Z,-4.97
2022-12-15T21:43:49.374Z,-4.81
2022-12-15T21:46:51.776Z,-4.89
2022-12-15T21:49:55.127Z,-4.67
2022-12-15T21:52:57.604Z,-4.60
2022-12-15T21:56:01.768Z,-4.58
2022-12-15T21:59:11.726Z,-4.65
2022-12-15T22:02:40.647Z,-4.87
2022-12-15T22:05:43.146Z,-4.75
2022-12-15T22:08:45.984Z,-4.68
2022-12-15T22:11:51.026Z,-4.66
2022-12-15T22:14:53.554Z,-4.78
2022-12-15T22:17:56.197Z,-4.77
2022-12-15T22:20:58.706Z,-4.89
2022-12-15T22:24:00.974Z,-4.73
2022-12-15T22:27:03.387Z,-4.73
2022-12-15T22:30:10.140Z,-4.63
2022-12-15T22:33:21.940Z,-4.69
2022-12-15T22:36:24.318Z,-4.70
2022-12-15T22:39:26.905Z,-4.77
2022-12-15T22:42:29.231Z,-4.77
2022-12-15T22:45:31.553Z,-4.67
2022-12-15T22:48:37.081Z,-4.85
2022-12-15T22:51:39.332Z,-4.87
2022-12-15T22:54:45.560Z,-5.06
2022-12-15T22:58:09.591Z,-4.79
2022-12-15T23:01:12.066Z,-4.72
2022-12-15T23:04:14.558Z,-4.72
2022-12-15T23:07:16.933Z,-4.61
2022-12-15T23:10:39.227Z,-4.62
2022-12-15T23:13:41.802Z,-4.56
2022-12-15T23:16:45.566Z,-4.65
2022-12-15T23:19:47.852Z,-4.71
2022-12-15T23:22:50.214Z,-4.89
2022-12-15T23:25:52.844Z,-4.87
2022-12-15T23:28:56.174Z,-4.93
2022-12-15T23:31:58.679Z,-4.94
2022-12-15T23:35:00.988Z,-4.82
2022-12-15T23:38:03.414Z,-4.83
2022-12-15T23:41:06.044Z,-4.72
2022-12-15T23:44:08.396Z,-4.73
2022-12-15T23:47:10.858Z,-4.66
2022-12-15T23:50:13.347Z,-4.61
2022-12-15T23:53:15.739Z,-4.73
2022-12-15T23:56:19.271Z,-4.69
2022-12-15T23:59:21.491Z,-4.70
